Weather at Ray Airport

Public forecast

Using degrees Fahrenheit for public forecast. Weather courtesy of forecast.io.

Closest aviation weather report (METAR) to Ray Airport

Closest report is Millington-Memphis Airport, 2.6 nm (4.7 km) WNW. Retrieved 2020/10/30 07:35 UTC (0 seconds ago):

KNQA 300735Z AUTO 33003KT 10SM 06/05 A3017 RMK A01

Closest aviation forecast (TAF) to Ray Airport

Closest forecast is Memphis International Airport, 19.9 nm (36.8 km) SSW. Retrieved 2020/10/30 06:22 UTC (52 minutes ago):

TAF KMEM 300520Z 3006/3112 35007KT P6SM BKN040 FM301300 36007KT P6SM FEW250 FM301600 01010KT P6SM FEW250 FM310000 04005KT P6SM FEW250